Cheikh El Mokrani — C6WD5 — position and weather

sailwx.info

Track history (hours):
 
Tides and Currents Weather Stations Pressure Air Temp Water Temp Dewpoint Dewpoint Depression Visibility Wind Speed Wind Dir Waves Ship Positions

Cheikh El Mokrani

Last reported at 2014-Jul-29 14:33 UTC. Time now 2014-Jul-29 14:46 UTC.
Position N 36°19' E 015°24'.

Length 220 m; draft 7.9 m.

Type: Ship (hazmat cat D). MMSI: 309979000.

Date/timePositionNaut miles runAvg speedWind from/ knotsBaromVisibWave heightAir tempDewpointWater temp
2014-Jul-29 14:33N 36°19' E 015°24'37216.1
2014-Jul-28 15:25N 36°01' E 023°05'1414.3
2014-Jul-28 14:27N 36°11' E 023°17'1616.2
2014-Jul-28 13:29N 36°26' E 023°23'1515.9
2014-Jul-28 12:33N 36°40' E 023°28'1515.5
2014-Jul-28 11:33N 36°55' E 023°34'1616.2
2014-Jul-28 10:34N 37°10' E 023°40'1616.1
2014-Jul-28 09:33N 37°26' E 023°41'1616.0
2014-Jul-28 08:33N 37°42' E 023°40'1211.9
2014-Jul-28 07:33N 37°50' E 023°29'8 7.9
2014-Jul-28 06:32N 37°56' E 023°23'1 0.0
2014-Jul-27 05:33N 37°57' E 023°23'0 0.2
2014-Jul-27 03:30N 37°57' E 023°22'0 0.0
2014-Jul-27 02:33N 37°57' E 023°22'0 0.0
2014-Jul-27 01:33N 37°57' E 023°22'0 0.0
2014-Jul-27 00:27N 37°57' E 023°22'0 0.0
2014-Jul-26 23:30N 37°57' E 023°22'0 0.0
2014-Jul-26 22:33N 37°57' E 023°22'0 0.0
2014-Jul-26 21:33N 37°57' E 023°22'0 0.0
2014-Jul-26 20:33N 37°57' E 023°22'0 0.0
2014-Jul-26 19:33N 37°57' E 023°22'0 0.0
2014-Jul-26 18:33N 37°57' E 023°22'0 0.0
2014-Jul-26 17:33N 37°57' E 023°22'0 0.0
2014-Jul-26 16:33N 37°57' E 023°22'0 0.0
2014-Jul-26 15:33N 37°57' E 023°22'0 0.1
2014-Jul-26 14:33N 37°57' E 023°22'1 0.8
2014-Jul-26 13:32N 37°56' E 023°22'7 6.8
2014-Jul-26 12:33N 37°51' E 023°27'10 9.8
2014-Jul-26 11:33N 37°49' E 023°40'1111.2
2014-Jul-26 10:33N 37°39' E 023°45'1613.7
2014-Jul-26 09:24N 37°23' E 023°46'1714.4
2014-Jul-26 08:15N 37°08' E 023°39'1214.5
2014-Jul-26 07:26N 36°57' E 023°35'1214.1
2014-Jul-26 06:33N 36°45' E 023°31'1414.2
2014-Jul-26 05:33N 36°31' E 023°25'1914.0
2014-Jul-26 04:10N 36°13' E 023°18'914.0
2014-Jul-26 03:33N 36°04' E 023°15'39114.9
2014-Jul-25 01:19N 36°20' E 015°10'1115.0
2014-Jul-25 00:33N 36°23' E 014°56'1515.0
2014-Jul-24 23:34N 36°26' E 014°39'1514.7
2014-Jul-24 22:33N 36°30' E 014°21'1514.6
2014-Jul-24 21:33N 36°34' E 014°03'1514.7
2014-Jul-24 20:33N 36°36' E 013°45'1514.6
2014-Jul-24 19:33N 36°40' E 013°28'1514.6
2014-Jul-24 18:33N 36°44' E 013°10'1514.9
2014-Jul-24 17:33N 36°47' E 012°52'1615.5
2014-Jul-24 16:33N 36°51' E 012°33'1515.1
2014-Jul-24 15:33N 36°55' E 012°15'1514.6
2014-Jul-24 14:32N 37°00' E 011°57'1414.8
2014-Jul-24 13:33N 37°07' E 011°41'17514.4
2014-Jul-24 01:24N 37°13' E 008°02'2815.0
2014-Jul-23 23:33N 37°12' E 007°27'1515.4
2014-Jul-23 22:33N 37°11' E 007°08'1212.0
2014-Jul-23 21:33N 36°60' E 007°04'  
2014-Jul-21 01:26N 41°48' E 005°30'1515.4
2014-Jul-21 00:28N 42°03' E 005°25'1616.6
2014-Jul-20 23:32N 42°18' E 005°20'1414.3
2014-Jul-20 22:33N 42°31' E 005°15'1616.2
2014-Jul-20 21:33N 42°47' E 005°09'1816.6
2014-Jul-20 20:28N 43°05' E 005°03'1314.6
2014-Jul-20 19:33N 43°17' E 004°59'10 9.7
2014-Jul-20 18:33N 43°26' E 004°52'1 1.4
2014-Jul-20 17:29N 43°27' E 004°51'0 0.0
2014-Jul-20 16:32N 43°27' E 004°51'0 0.0
2014-Jul-20 15:26N 43°27' E 004°51'0 0.0
2014-Jul-20 14:33N 43°27' E 004°51'0 0.0
2014-Jul-20 13:30N 43°27' E 004°51'0 0.0
2014-Jul-20 12:32N 43°27' E 004°51'0 0.0
2014-Jul-20 11:29N 43°27' E 004°51'0 0.0
2014-Jul-20 10:29N 43°27' E 004°51'0 0.0
2014-Jul-20 09:32N 43°27' E 004°51'0 0.0
2014-Jul-20 08:33N 43°27' E 004°51'0 0.0
2014-Jul-20 07:32N 43°27' E 004°51'0 0.0
2014-Jul-20 06:32N 43°27' E 004°51'0 0.0
2014-Jul-20 05:29N 43°27' E 004°51'0 0.0
2014-Jul-20 04:32N 43°27' E 004°51'0 0.0
2014-Jul-20 03:32N 43°27' E 004°51'0 0.0
2014-Jul-20 02:32N 43°27' E 004°51'0 0.0
2014-Jul-20 01:32N 43°27' E 004°51'0 0.0
2014-Jul-20 00:32N 43°27' E 004°51'0 0.0
2014-Jul-19 23:32N 43°27' E 004°51'0 0.0
2014-Jul-19 22:29N 43°27' E 004°51'0 0.0
2014-Jul-19 21:32N 43°27' E 004°51'0 0.0
2014-Jul-19 20:29N 43°27' E 004°51'0 0.0
2014-Jul-19 19:29N 43°27' E 004°51'0 0.0
2014-Jul-19 18:32N 43°27' E 004°51'0 0.0
2014-Jul-19 17:32N 43°27' E 004°51'0 0.0
2014-Jul-19 16:26N 43°27' E 004°51'0 0.0
2014-Jul-19 15:32N 43°27' E 004°51'  
Track history (hours):
 
Tides and Currents Weather Stations Pressure Air Temp Water Temp Dewpoint Dewpoint Depression Visibility Wind Speed Wind Dir Waves Ship Positions

Cheikh El Mokrani

Last reported at 2014-Jul-29 14:33 UTC. Time now 2014-Jul-29 14:46 UTC.
Position N 36°19' E 015°24'.

Length 220 m; draft 7.9 m.

Type: Ship (hazmat cat D). MMSI: 309979000.

Date/timePositionNaut miles runAvg speedWind from/ knotsBaromVisibWave heightAir tempDewpointWater temp
2014-Jul-29 14:33N 36°19' E 015°24'37216.1
2014-Jul-28 15:25N 36°01' E 023°05'1414.3
2014-Jul-28 14:27N 36°11' E 023°17'1616.2
2014-Jul-28 13:29N 36°26' E 023°23'1515.9
2014-Jul-28 12:33N 36°40' E 023°28'1515.5
2014-Jul-28 11:33N 36°55' E 023°34'1616.2
2014-Jul-28 10:34N 37°10' E 023°40'1616.1
2014-Jul-28 09:33N 37°26' E 023°41'1616.0
2014-Jul-28 08:33N 37°42' E 023°40'1211.9
2014-Jul-28 07:33N 37°50' E 023°29'8 7.9
2014-Jul-28 06:32N 37°56' E 023°23'1 0.0
2014-Jul-27 05:33N 37°57' E 023°23'0 0.2
2014-Jul-27 03:30N 37°57' E 023°22'0 0.0
2014-Jul-27 02:33N 37°57' E 023°22'0 0.0
2014-Jul-27 01:33N 37°57' E 023°22'0 0.0
2014-Jul-27 00:27N 37°57' E 023°22'0 0.0
2014-Jul-26 23:30N 37°57' E 023°22'0 0.0
2014-Jul-26 22:33N 37°57' E 023°22'0 0.0
2014-Jul-26 21:33N 37°57' E 023°22'0 0.0
2014-Jul-26 20:33N 37°57' E 023°22'0 0.0
2014-Jul-26 19:33N 37°57' E 023°22'0 0.0
2014-Jul-26 18:33N 37°57' E 023°22'0 0.0
2014-Jul-26 17:33N 37°57' E 023°22'0 0.0
2014-Jul-26 16:33N 37°57' E 023°22'0 0.0
2014-Jul-26 15:33N 37°57' E 023°22'0 0.1
2014-Jul-26 14:33N 37°57' E 023°22'1 0.8
2014-Jul-26 13:32N 37°56' E 023°22'7 6.8
2014-Jul-26 12:33N 37°51' E 023°27'10 9.8
2014-Jul-26 11:33N 37°49' E 023°40'1111.2
2014-Jul-26 10:33N 37°39' E 023°45'1613.7
2014-Jul-26 09:24N 37°23' E 023°46'1714.4
2014-Jul-26 08:15N 37°08' E 023°39'1214.5
2014-Jul-26 07:26N 36°57' E 023°35'1214.1
2014-Jul-26 06:33N 36°45' E 023°31'1414.2
2014-Jul-26 05:33N 36°31' E 023°25'1914.0
2014-Jul-26 04:10N 36°13' E 023°18'914.0
2014-Jul-26 03:33N 36°04' E 023°15'39114.9
2014-Jul-25 01:19N 36°20' E 015°10'1115.0
2014-Jul-25 00:33N 36°23' E 014°56'1515.0
2014-Jul-24 23:34N 36°26' E 014°39'1514.7
2014-Jul-24 22:33N 36°30' E 014°21'1514.6
2014-Jul-24 21:33N 36°34' E 014°03'1514.7
2014-Jul-24 20:33N 36°36' E 013°45'1514.6
2014-Jul-24 19:33N 36°40' E 013°28'1514.6
2014-Jul-24 18:33N 36°44' E 013°10'1514.9
2014-Jul-24 17:33N 36°47' E 012°52'1615.5
2014-Jul-24 16:33N 36°51' E 012°33'1515.1
2014-Jul-24 15:33N 36°55' E 012°15'1514.6
2014-Jul-24 14:32N 37°00' E 011°57'1414.8
2014-Jul-24 13:33N 37°07' E 011°41'17514.4
2014-Jul-24 01:24N 37°13' E 008°02'2815.0
2014-Jul-23 23:33N 37°12' E 007°27'1515.4
2014-Jul-23 22:33N 37°11' E 007°08'1212.0
2014-Jul-23 21:33N 36°60' E 007°04'  
2014-Jul-21 01:26N 41°48' E 005°30'1515.4
2014-Jul-21 00:28N 42°03' E 005°25'1616.6
2014-Jul-20 23:32N 42°18' E 005°20'1414.3
2014-Jul-20 22:33N 42°31' E 005°15'1616.2
2014-Jul-20 21:33N 42°47' E 005°09'1816.6
2014-Jul-20 20:28N 43°05' E 005°03'1314.6
2014-Jul-20 19:33N 43°17' E 004°59'10 9.7
2014-Jul-20 18:33N 43°26' E 004°52'1 1.4
2014-Jul-20 17:29N 43°27' E 004°51'0 0.0
2014-Jul-20 16:32N 43°27' E 004°51'0 0.0
2014-Jul-20 15:26N 43°27' E 004°51'0 0.0
2014-Jul-20 14:33N 43°27' E 004°51'0 0.0
2014-Jul-20 13:30N 43°27' E 004°51'0 0.0
2014-Jul-20 12:32N 43°27' E 004°51'0 0.0
2014-Jul-20 11:29N 43°27' E 004°51'0 0.0
2014-Jul-20 10:29N 43°27' E 004°51'0 0.0
2014-Jul-20 09:32N 43°27' E 004°51'0 0.0
2014-Jul-20 08:33N 43°27' E 004°51'0 0.0
2014-Jul-20 07:32N 43°27' E 004°51'0 0.0
2014-Jul-20 06:32N 43°27' E 004°51'0 0.0
2014-Jul-20 05:29N 43°27' E 004°51'0 0.0
2014-Jul-20 04:32N 43°27' E 004°51'0 0.0
2014-Jul-20 03:32N 43°27' E 004°51'0 0.0
2014-Jul-20 02:32N 43°27' E 004°51'0 0.0
2014-Jul-20 01:32N 43°27' E 004°51'0 0.0
2014-Jul-20 00:32N 43°27' E 004°51'0 0.0
2014-Jul-19 23:32N 43°27' E 004°51'0 0.0
2014-Jul-19 22:29N 43°27' E 004°51'0 0.0
2014-Jul-19 21:32N 43°27' E 004°51'0 0.0
2014-Jul-19 20:29N 43°27' E 004°51'0 0.0
2014-Jul-19 19:29N 43°27' E 004°51'0 0.0
2014-Jul-19 18:32N 43°27' E 004°51'0 0.0
2014-Jul-19 17:32N 43°27' E 004°51'0 0.0
2014-Jul-19 16:26N 43°27' E 004°51'0 0.0
2014-Jul-19 15:32N 43°27' E 004°51'  

Dump ship's entire track history